Latest Weather Observations for Port Lincoln Airport

IDS60801

Issued at 7:01 pm CST Thursday 2 July 2015 (issued every 30 minutes, with the page automatically refreshed every 10 minutes)

About weather observations | Map of weather stations | Latest weather observations for SA | Other Formats
Station Details ID: 018192 Name: PORT LINCOLN AWS Lat: -34.60 Lon: 135.88 Height: 8.5 m
Data from the previous 72 hours. | See also: Recent months at Port Lincoln Airport
Date/Time
CST
Temp
°C
App
Temp
°C
Dew
Point
Rel
Hum
%
Delta-T
°C
Wind Press
QNH
hPa
Press
MSL
hPa
Rain
since 9 am
mm
Dir
 
Spd
km/h
Gust
km/h
Spd
kts
Gust
kts
02/07:00pm 7.2 6.3 6.0 92 0.5 CALM 0 0 0 0 1030.2 1030.2 0.0
02/06:30pm 9.4 8.3 6.7 83 1.2 E 2 6 1 3 1029.8 1029.8 0.0
02/06:00pm 11.6 9.5 8.3 80 1.6 E 9 11 5 6 1029.7 1029.7 0.0
02/05:30pm 12.5 10.6 9.0 79 1.7 ESE 9 11 5 6 1029.4 1029.4 0.0
02/05:00pm 13.6 10.9 9.1 74 2.3 ESE 13 15 7 8 1029.5 1029.5 0.0
02/04:30pm 14.0 10.6 9.2 73 2.4 ESE 17 20 9 11 1029.5 1029.5 0.0
02/04:00pm 15.0 12.6 10.0 72 2.6 SE 13 15 7 8 1029.5 1029.5 0.0
02/03:30pm 14.4 11.9 9.6 73 2.5 SE 13 17 7 9 1029.5 1029.5 0.0
02/03:00pm 14.6 11.7 9.8 73 2.5 SE 15 17 8 9 1029.4 1029.4 0.0
02/02:30pm 15.3 12.5 9.9 70 2.8 SE 15 20 8 11 1029.3 1029.3 0.0
02/02:00pm 15.1 13.4 9.9 71 2.7 E 9 13 5 7 1029.4 1029.4 0.0
02/01:30pm 14.6 13.5 10.6 77 2.1 S 7 11 4 6 1029.8 1029.8 0.0
02/01:00pm 14.8 12.3 11.0 78 2.0 SSE 15 19 8 10 1030.1 1030.1 0.0
02/12:30pm 15.0 12.4 12.0 82 1.6 SSE 17 20 9 11 1030.2 1030.2 0.0
02/12:00pm 14.6 11.8 12.5 87 1.1 S 19 24 10 13 1030.7 1030.7 0.0
02/11:50am 14.5 11.7 12.5 88 1.1 SSE 19 26 10 14 1030.8 1030.8 0.0
02/11:40am 14.1 11.1 12.5 90 0.9 S 20 26 11 14 1030.9 1030.9 0.0
02/11:30am 14.2 11.9 13.1 93 0.6 S 17 20 9 11 1031.1 1031.1 0.0
02/11:29am 14.2 11.9 13.1 93 0.6 S 17 20 9 11 1031.1 1031.1 0.0
02/11:11am 14.2 11.3 12.4 89 1.0 SSW 19 22 10 12 1031.1 1031.1 0.0
02/11:00am 15.2 13.5 12.5 84 1.5 SSE 13 20 7 11 1030.8 1030.8 0.0
02/10:38am 15.1 12.7 12.8 86 1.3 S 17 20 9 11 1030.5 1030.5 0.0
02/10:30am 14.8 11.9 12.3 85 1.4 S 19 24 10 13 1030.5 1030.5 0.0
02/10:24am 14.7 11.7 12.0 84 1.5 S 19 24 10 13 1030.4 1030.4 0.0
02/10:00am 15.5 13.8 12.6 83 1.6 WSW 13 17 7 9 1030.3 1030.3 0.0
02/09:30am 14.0 12.2 12.0 88 1.1 NW 13 15 7 8 1029.9 1029.9 0.0
02/09:00am 12.7 11.0 11.3 91 0.7 WNW 11 13 6 7 1029.6 1029.6 0.0
02/08:30am 11.4 9.0 10.1 92 0.7 WNW 13 17 7 9 1029.4 1029.4 0.0
02/08:00am 11.7 9.1 10.6 93 0.6 WNW 15 19 8 10 1028.9 1028.9 0.0
02/07:30am 11.0 7.4 9.9 93 0.6 WNW 19 20 10 11 1028.7 1028.7 0.0
02/07:00am 10.4 7.8 9.3 93 0.5 NW 13 15 7 8 1028.5 1028.5 0.0
02/06:30am 10.6 8.8 9.5 93 0.5 N 9 17 5 9 1028.2 1028.2 0.0
02/06:00am 10.9 8.0 9.5 91 0.7 N 15 19 8 10 1028.1 1028.1 0.0
02/05:30am 10.5 7.9 9.3 92 0.6 NNW 13 20 7 11 1028.0 1028.0 0.0
02/05:00am 9.4 7.3 8.3 93 0.5 NNW 9 13 5 7 1027.8 1027.8 0.0
02/04:30am 9.7 6.5 8.6 93 0.5 NW 15 17 8 9 1027.7 1027.7 0.0
02/04:00am 10.3 7.3 9.1 92 0.6 W 15 17 8 9 1028.0 1028.0 0.0
02/03:30am 10.7 7.3 9.3 91 0.7 W 17 22 9 12 1028.1 1028.1 0.0
02/03:00am 10.2 8.8 9.6 96 0.3 WNW 7 13 4 7 1028.1 1028.1 0.0
02/02:30am 9.0 7.8 8.1 94 0.4 N 4 11 2 6 1028.1 1028.1 0.0
02/02:00am 9.1 5.5 8.3 95 0.4 N 17 17 9 9 1027.8 1027.8 0.0
02/01:30am 9.5 7.1 8.6 94 0.4 NNW 11 19 6 10 1027.7 1027.7 0.0
02/01:00am 8.7 6.4 7.3 91 0.7 NNW 9 11 5 6 1027.8 1027.8 0.0
02/12:30am 9.8 7.5 9.0 95 0.4 NW 11 15 6 8 1028.0 1028.0 0.0
02/12:00am 9.6 6.0 8.5 93 0.5 NW 17 20 9 11 1028.3 1028.3 0.0
 
Date/Time
CST
Temp
°C
App
Temp
°C
Dew
Point
Rel
Hum
%
Delta-T
°C
Wind Press
QNH
hPa
Press
MSL
hPa
Rain
since 9 am
mm
Dir
 
Spd
km/h
Gust
km/h
Spd
kts
Gust
kts
01/11:30pm 9.6 6.1 8.7 94 0.4 NW 17 20 9 11 1028.4 1028.4 0.0
01/11:00pm 9.8 6.7 8.7 93 0.5 NW 15 17 8 9 1028.4 1028.4 0.0
01/10:30pm 10.5 6.7 9.1 91 0.7 NW 19 22 10 12 1028.2 1028.2 0.0
01/10:00pm 11.1 7.2 9.5 90 0.8 NW 20 24 11 13 1028.1 1028.1 0.0
01/09:30pm 10.8 6.8 9.1 89 0.8 WNW 20 24 11 13 1027.9 1027.9 0.0
01/09:00pm 11.2 6.8 9.1 87 1.0 WNW 22 28 12 15 1028.0 1028.0 0.0
01/08:30pm 11.8 7.0 9.0 83 1.4 WNW 24 35 13 19 1027.9 1027.9 0.0
01/08:00pm 12.4 7.7 9.1 80 1.7 WNW 24 30 13 16 1027.7 1027.7 0.0
01/07:30pm 12.3 7.5 9.0 80 1.6 WNW 24 30 13 16 1027.5 1027.5 0.0
01/07:00pm 12.1 8.0 8.6 79 1.7 NW 20 28 11 15 1027.6 1027.6 0.0
01/06:30pm 11.7 7.9 7.6 76 2.0 WNW 17 22 9 12 1027.5 1027.5 0.0
01/06:00pm 11.9 8.4 7.2 73 2.2 NW 15 19 8 10 1027.5 1027.5 0.0
01/05:30pm 12.1 8.0 7.8 75 2.1 NW 19 22 10 12 1027.0 1027.0 0.0
01/05:00pm 12.7 11.1 7.8 72 2.4 NW 6 13 3 7 1027.2 1027.2 0.0
01/04:30pm 12.6 9.9 7.3 70 2.6 N 11 17 6 9 1027.0 1027.0 0.0
01/04:00pm 13.4 10.3 7.4 67 2.9 NNW 13 24 7 13 1027.2 1027.2 0.0
01/03:30pm 13.0 9.7 6.4 64 3.1 NW 13 19 7 10 1027.3 1027.3 0.0
01/03:00pm 12.5 9.3 6.8 68 2.7 NNW 13 19 7 10 1027.5 1027.5 0.0
01/02:30pm 12.4 10.0 7.1 70 2.5 NW 9 17 5 9 1027.5 1027.5 0.0
01/02:00pm 12.7 9.4 6.5 66 3.0 NW 13 17 7 9 1027.6 1027.6 0.0
01/01:30pm 13.3 9.7 6.6 64 3.2 NW 15 20 8 11 1027.9 1027.9 0.0
01/01:00pm 12.2 7.8 6.5 68 2.7 NW 19 26 10 14 1028.4 1028.4 0.0
01/12:30pm 11.8 7.3 5.9 67 2.7 NW 19 28 10 15 1029.1 1029.1 0.0
01/12:00pm 11.8 6.4 6.5 70 2.5 NW 24 32 13 17 1029.8 1029.8 0.0
01/11:30am 12.1 7.5 6.6 69 2.6 NW 20 26 11 14 1030.1 1030.1 0.0
01/11:00am 11.7 7.0 6.2 69 2.6 NW 20 26 11 14 1029.7 1029.7 0.0
01/10:30am 11.2 6.2 6.3 72 2.3 NNW 22 30 12 16 1030.3 1030.3 0.0
01/10:00am 10.8 5.8 6.6 75 2.0 NNW 22 30 12 16 1030.7 1030.7 0.0
01/09:30am 9.0 4.4 5.7 80 1.5 NW 19 24 10 13 1030.6 1030.6 0.0
01/09:00am 8.6 3.8 5.4 80 1.4 NW 20 28 11 15 1030.3 1030.3 0.0
01/08:30am 7.1 2.2 4.2 82 1.2 NW 19 24 10 13 1029.8 1029.8 0.0
01/08:00am 5.9 2.2 4.4 90 0.6 WNW 13 17 7 9 1029.8 1029.8 0.0
01/07:30am 4.8 1.6 2.8 87 0.8 WNW 9 15 5 8 1029.8 1029.8 0.0
01/07:00am 3.9 1.4 1.6 85 0.9 SSE 4 9 2 5 1029.8 1029.8 0.0
01/06:30am 5.2 1.2 2.6 83 1.0 NW 13 17 7 9 1029.5 1029.5 0.0
01/06:00am 4.6 0.1 2.0 83 1.0 WNW 15 19 8 10 1029.4 1029.4 0.0
01/05:30am 5.0 0.6 2.5 84 1.0 NW 15 19 8 10 1029.1 1029.1 0.0
01/05:00am 4.9 0.8 2.1 82 1.1 NW 13 17 7 9 1029.3 1029.3 0.0
01/04:30am 5.1 0.2 2.3 82 1.1 WNW 17 20 9 11 1029.3 1029.3 0.0
01/04:00am 5.3 -0.1 2.3 81 1.2 NNW 20 24 11 13 1029.3 1029.3 0.0
01/03:30am 5.2 1.5 2.6 83 1.0 NW 11 15 6 8 1029.6 1029.6 0.0
01/03:00am 5.2 0.8 2.7 84 1.0 WNW 15 19 8 10 1029.6 1029.6 0.0
01/02:30am 5.0 0.9 2.4 83 1.0 NW 13 19 7 10 1029.5 1029.5 0.0
01/02:00am 6.1 1.3 2.6 78 1.4 NW 17 20 9 11 1029.7 1029.7 0.0
01/01:30am 5.7 0.9 2.7 81 1.2 NW 17 20 9 11 1029.7 1029.7 0.0
01/01:00am 5.6 1.6 2.6 81 1.2 WNW 13 17 7 9 1029.9 1029.9 0.0
01/12:30am 5.3 0.5 2.8 84 1.0 NW 17 19 9 10 1030.0 1030.0 0.0
01/12:00am 6.0 1.3 3.2 82 1.2 NW 17 20 9 11 1030.1 1030.1 0.0
 
Date/Time
CST
Temp
°C
App
Temp
°C
Dew
Point
Rel
Hum
%
Delta-T
°C
Wind Press
QNH
hPa
Press
MSL
hPa
Rain
since 9 am
mm
Dir
 
Spd
km/h
Gust
km/h
Spd
kts
Gust
kts
30/11:30pm 5.3 1.4 3.2 86 0.9 NNW 13 15 7 8 1030.3 1030.3 0.0
30/11:00pm 5.4 1.5 3.4 87 0.8 NW 13 15 7 8 1030.5 1030.5 0.0
30/10:30pm 5.3 1.4 3.3 87 0.8 WNW 13 17 7 9 1030.6 1030.6 0.0
30/10:00pm 5.7 2.7 3.9 88 0.8 NW 9 11 5 6 1030.6 1030.6 0.0
30/09:30pm 5.2 2.4 3.4 88 0.7 NW 7 9 4 5 1030.7 1030.7 0.0
30/09:00pm 5.5 2.4 3.5 87 0.8 NNW 9 11 5 6 1030.7 1030.7 0.0
30/08:30pm 6.6 5.0 4.6 87 0.9 NW 2 6 1 3 1030.6 1030.6 0.0
30/08:00pm 6.4 2.8 4.9 90 0.7 NW 13 15 7 8 1030.7 1030.7 0.0
30/07:30pm 5.6 2.6 4.1 90 0.6 NNW 9 13 5 7 1030.7 1030.7 0.0
30/07:00pm 6.5 3.7 5.0 90 0.7 NW 9 11 5 6 1030.5 1030.5 0.0
30/06:30pm 7.6 5.3 5.9 89 0.8 NW 7 9 4 5 1030.3 1030.3 0.0
30/06:00pm 8.0 5.0 6.0 87 0.9 NW 11 13 6 7 1030.2 1030.2 0.0
30/05:30pm 10.6 8.4 6.0 73 2.1 N 7 9 4 5 1029.7 1029.7 0.0
30/05:00pm 11.9 9.9 7.0 72 2.3 NNE 7 11 4 6 1029.8 1029.8 0.0
30/04:30pm 13.1 10.7 7.1 67 2.9 NE 9 13 5 7 1029.7 1029.7 0.0
30/04:00pm 13.7 10.2 5.6 58 3.8 NE 13 15 7 8 1029.5 1029.5 0.0
30/03:30pm 14.0 10.5 5.6 57 3.9 ENE 13 17 7 9 1029.4 1029.4 0.0
30/03:00pm 14.2 10.1 6.1 58 3.8 E 17 20 9 11 1028.9 1028.9 0.0
30/02:30pm 14.8 11.8 5.9 55 4.2 NE 11 17 6 9 1029.1 1029.1 0.0
30/02:00pm 14.8 11.7 5.6 54 4.4 N 11 19 6 10 1029.3 1029.3 0.0
30/01:30pm 14.4 12.1 5.7 56 4.1 ENE 7 13 4 7 1029.6 1029.6 0.0
30/01:00pm 13.5 10.3 5.2 57 3.9 NNE 11 15 6 8 1030.0 1030.0 0.0
30/12:30pm 13.7 11.5 5.3 57 3.9 NNE 6 13 3 7 1030.4 1030.4 0.0
30/12:00pm 13.0 11.7 5.9 62 3.3 NW 2 7 1 4 1030.8 1030.8 0.0
30/11:30am 12.3 10.8 7.0 70 2.5 N 4 9 2 5 1031.4 1031.4 0.0
30/11:00am 11.5 9.8 7.6 77 1.9 NW 6 7 3 4 1031.5 1031.5 0.0
30/10:30am 10.0 7.0 7.6 85 1.1 NNW 13 20 7 11 1031.6 1031.6 0.0
30/10:00am 8.7 5.5 7.0 89 0.8 NNW 13 17 7 9 1031.4 1031.4 0.0
30/09:30am 8.1 5.2 6.7 91 0.6 NW 11 15 6 8 1031.6 1031.6 0.0
30/09:00am 6.7 3.7 5.8 94 0.4 NNW 11 13 6 7 1031.4 1031.4 0.2
30/08:30am 5.6 2.7 4.7 94 0.4 NNW 9 11 5 6 1031.0 1031.0 0.2
30/08:00am 5.2 1.9 4.6 96 0.3 NNW 11 13 6 7 1030.8 1030.8 0.2
30/07:30am 4.4 0.6 4.0 97 0.2 NNW 13 13 7 7 1030.7 1030.7 0.2
30/07:00am 3.4 -0.2 2.8 96 0.2 NNW 11 13 6 7 1030.3 1030.3 0.2
30/06:30am 4.2 0.0 3.8 97 0.2 NW 15 17 8 9 1029.9 1029.9 0.2
30/06:00am 3.0 -0.3 2.4 96 0.2 NW 9 13 5 7 1029.7 1029.7 0.2
30/05:30am 3.2 -0.9 2.5 95 0.3 NW 13 15 7 8 1029.5 1029.5 0.0
30/05:00am 4.1 -0.2 3.5 96 0.2 NW 15 17 8 9 1029.3 1029.3 0.0
30/04:30am 4.1 -0.2 3.5 96 0.2 NW 15 17 8 9 1029.4 1029.4 0.0
30/04:00am 4.1 0.6 3.5 96 0.2 NW 11 15 6 8 1029.4 1029.4 0.0
30/03:30am 3.4 -0.6 3.0 97 0.2 NW 13 15 7 8 1029.4 1029.4 0.0
30/03:00am 3.4 -0.6 3.0 97 0.2 NW 13 15 7 8 1029.5 1029.5 0.0
30/02:30am 3.5 -0.8 3.2 98 0.1 NW 15 17 8 9 1029.5 1029.5 0.0
30/02:00am 3.4 -0.2 3.0 97 0.2 NW 11 15 6 8 1029.5 1029.5 0.0
30/01:30am 3.1 -0.5 2.7 97 0.2 NW 11 13 6 7 1029.6 1029.6 0.0
30/01:00am 3.5 -0.5 3.1 97 0.2 NW 13 15 7 8 1029.6 1029.6 0.0
30/12:30am 4.2 0.4 3.8 97 0.2 NW 13 17 7 9 1029.7 1029.7 0.0
30/12:00am 4.1 0.6 3.7 97 0.2 NNW 11 11 6 6 1030.0 1030.0 0.0
 
Date/Time
CST
Temp
°C
App
Temp
°C
Dew
Point
Rel
Hum
%
Delta-T
°C
Wind Press
QNH
hPa
Press
MSL
hPa
Rain
since 9 am
mm
Dir
 
Spd
km/h
Gust
km/h
Spd
kts
Gust
kts
29/11:30pm 4.2 0.3 3.6 96 0.2 NW 13 15 7 8 1030.3 1030.3 0.0
29/11:00pm 4.8 2.2 4.1 95 0.3 WNW 7 9 4 5 1030.5 1030.5 0.0
29/10:30pm 5.4 1.8 4.8 96 0.3 WNW 13 15 7 8 1030.7 1030.7 0.0
29/10:00pm 5.7 2.5 5.0 95 0.3 WNW 11 15 6 8 1030.8 1030.8 0.0
29/09:30pm 6.0 2.5 5.6 97 0.2 WNW 13 15 7 8 1030.8 1030.8 0.0
29/09:00pm 4.9 1.9 4.3 96 0.3 NW 9 11 5 6 1030.8 1030.8 0.0
29/08:30pm 5.5 2.6 4.9 96 0.3 NW 9 9 5 5 1030.7 1030.7 0.0
29/08:00pm 5.2 2.7 4.5 95 0.3 NW 7 9 4 5 1030.8 1030.8 0.0
29/07:30pm 5.9 3.4 5.0 94 0.4 NW 7 7 4 4 1030.6 1030.6 0.0

Other Formats:

Comma delimited format used in spreadsheet applications
http://www.bom.gov.au/fwo/IDS60801/IDS60801.95661.axf

JavaScript Object Notation format (JSON) in row-major order
http://www.bom.gov.au/fwo/IDS60801/IDS60801.95661.json